Time;durP1;ratioP1;P1;durP2;ratioP2;P2;SDS_P1;SDS_P2;PMS_P1;PMS_P2;Temp;Humidity;BMP_temperature;BMP_pressure;BME280_temperature;BME280_humidity;BME280_pressure;Samples;Min_cycle;Max_cycle;Signal;HPM_P1;HPM_P2
2022/09/03 00:02:12;;;;;;;2.05;1.77;;;;;;;;;;12494758;28;20052;-73
2022/09/03 00:08:21;;;;;;;1.77;1.67;;;;;;;;;;12494341;28;20046;-73
2022/09/03 00:14:26;;;;;;;2.30;2.10;;;;;;;;;;12494943;28;20038;-74
2022/09/03 00:20:31;;;;;;;1.70;1.60;;;;;;;;;;12478767;28;20037;-74
2022/09/03 00:26:35;;;;;;;2.13;2.00;;;;;;;;;;12504159;28;20061;-73
2022/09/03 00:32:39;;;;;;;2.13;2.03;;;;;;;;;;12486327;28;20037;-73
2022/09/03 00:38:41;;;;;;;2.20;1.70;;;;;;;;;;12504312;28;20037;-72
2022/09/03 00:45:02;;;;;;;1.67;1.58;;;;;;;;;;12486164;28;20041;-73
2022/09/03 00:51:30;;;;;;;2.75;1.70;;;;;;;;;;12469073;28;20395;-73
2022/09/03 00:57:44;;;;;;;2.10;1.50;;;;;;;;;;12499265;28;20045;-73
2022/09/03 01:04:05;;;;;;;2.53;1.88;;;;;;;;;;12502441;28;20037;-73
2022/09/03 01:10:27;;;;;;;1.95;1.70;;;;;;;;;;12501999;28;20518;-73
2022/09/03 01:16:32;;;;;;;1.70;1.60;;;;;;;;;;12484335;28;20048;-73
2022/09/03 01:22:53;;;;;;;1.50;1.40;;;;;;;;;;12502135;28;20056;-73
2022/09/03 01:29:13;;;;;;;1.63;1.30;;;;;;;;;;12501951;28;20029;-73
2022/09/03 01:35:33;;;;;;;4.80;1.30;;;;;;;;;;12500789;28;20045;-73
2022/09/03 01:48:11;;;;;;;1.00;1.00;;;;;;;;;;12483493;28;20029;-73
2022/09/03 01:54:33;;;;;;;1.57;1.27;;;;;;;;;;12500200;28;20041;-74
2022/09/03 02:00:37;;;;;;;1.52;1.10;;;;;;;;;;12499763;28;20797;-74
2022/09/03 02:06:39;;;;;;;1.35;1.20;;;;;;;;;;12482336;28;20056;-73
2022/09/03 02:12:43;;;;;;;2.13;1.52;;;;;;;;;;12500927;28;20048;-74
2022/09/03 02:18:50;;;;;;;1.08;1.08;;;;;;;;;;12521296;28;20045;-74
2022/09/03 02:24:52;;;;;;;1.63;1.10;;;;;;;;;;12498706;28;20038;-73
2022/09/03 02:30:55;;;;;;;1.17;1.10;;;;;;;;;;12481171;28;20029;-73
2022/09/03 02:36:57;;;;;;;0.90;0.80;;;;;;;;;;12480428;28;20491;-73
2022/09/03 02:42:59;;;;;;;1.38;1.00;;;;;;;;;;12498047;28;20050;-73
2022/09/03 02:49:01;;;;;;;;;;;;;;;;;;12498066;28;20048;-73
2022/09/03 02:55:02;;;;;;;1.52;1.23;;;;;;;;;;12463536;28;19938;-73
2022/09/03 03:01:04;;;;;;;;;;;;;;;;;;12498025;28;20377;-73
2022/09/03 03:07:06;;;;;;;1.90;1.10;;;;;;;;;;12479275;28;19909;-73
2022/09/03 03:13:08;;;;;;;1.02;1.02;;;;;;;;;;12462355;28;20408;-74
2022/09/03 03:19:10;;;;;;;1.10;0.80;;;;;;;;;;12496185;28;20034;-73
2022/09/03 03:25:11;;;;;;;1.25;1.00;;;;;;;;;;12478576;28;20052;-73
2022/09/03 03:31:18;;;;;;;1.00;1.00;;;;;;;;;;12477956;28;20037;-73
2022/09/03 03:37:20;;;;;;;0.68;0.68;;;;;;;;;;12495826;28;20435;-73
2022/09/03 03:43:22;;;;;;;0.90;0.90;;;;;;;;;;12496135;28;20041;-73
2022/09/03 03:49:23;;;;;;;1.15;1.00;;;;;;;;;;12461281;28;20049;-73
2022/09/03 03:55:25;;;;;;;1.00;0.90;;;;;;;;;;12495483;28;20072;-74
2022/09/03 04:01:28;;;;;;;2.27;1.00;;;;;;;;;;12494628;28;20654;-74
2022/09/03 04:07:30;;;;;;;1.67;0.82;;;;;;;;;;12477300;28;20045;-74
2022/09/03 04:13:32;;;;;;;1.60;1.05;;;;;;;;;;12494711;28;20057;-74
2022/09/03 04:19:34;;;;;;;;;;;;;;;;;;12477448;28;20050;-74
2022/09/03 04:25:35;;;;;;;1.00;0.88;;;;;;;;;;12494288;28;19928;-74
2022/09/03 04:31:38;;;;;;;0.95;0.95;;;;;;;;;;12476474;28;20040;-73
2022/09/03 04:37:39;;;;;;;1.40;1.30;;;;;;;;;;12476129;28;20048;-73
2022/09/03 04:43:42;;;;;;;1.00;1.00;;;;;;;;;;12494625;28;20052;-73
2022/09/03 04:49:43;;;;;;;;;;;;;;;;;;12494223;28;20272;-74
2022/09/03 04:55:45;;;;;;;1.02;1.02;;;;;;;;;;12494571;28;19909;-74
2022/09/03 05:01:47;;;;;;;0.93;0.93;;;;;;;;;;12477187;28;20041;-74
2022/09/03 05:07:48;;;;;;;1.50;1.00;;;;;;;;;;12496350;28;20056;-74
2022/09/03 05:13:51;;;;;;;1.10;1.00;;;;;;;;;;12467929;28;20041;-74
2022/09/03 05:19:52;;;;;;;1.20;1.05;;;;;;;;;;12484304;28;20287;-74
2022/09/03 05:25:57;;;;;;;1.42;1.30;;;;;;;;;;12483378;28;20037;-74
2022/09/03 05:31:59;;;;;;;1.48;1.20;;;;;;;;;;12483691;28;20053;-73
2022/09/03 05:38:01;;;;;;;1.02;0.93;;;;;;;;;;12501115;28;20399;-74
2022/09/03 05:44:02;;;;;;;1.48;1.38;;;;;;;;;;12500356;28;20045;-73
2022/09/03 05:50:07;;;;;;;1.40;1.20;;;;;;;;;;12482885;28;20057;-74
2022/09/03 05:56:10;;;;;;;1.15;1.05;;;;;;;;;;12500869;28;20308;-74
2022/09/03 06:02:12;;;;;;;0.98;0.90;;;;;;;;;;12499814;28;20043;-74
2022/09/03 06:08:13;;;;;;;1.60;0.88;;;;;;;;;;12499266;28;20048;-73
2022/09/03 06:14:15;;;;;;;0.90;0.90;;;;;;;;;;12481611;28;20042;-73
2022/09/03 06:20:17;;;;;;;0.93;0.82;;;;;;;;;;12497997;28;20033;-73
2022/09/03 06:26:19;;;;;;;1.10;1.00;;;;;;;;;;12481004;28;20046;-73
2022/09/03 06:32:21;;;;;;;1.20;1.10;;;;;;;;;;12464566;28;20033;-73
2022/09/03 06:38:24;;;;;;;1.05;0.95;;;;;;;;;;12480598;28;20029;-73
2022/09/03 06:44:25;;;;;;;1.15;0.90;;;;;;;;;;12497539;28;20407;-73
2022/09/03 06:50:27;;;;;;;1.58;0.82;;;;;;;;;;12479870;28;20033;-75
2022/09/03 06:56:29;;;;;;;0.77;0.77;;;;;;;;;;12497513;28;20041;-74
2022/09/03 07:02:32;;;;;;;0.93;0.80;;;;;;;;;;12479575;28;20046;-74
2022/09/03 07:08:34;;;;;;;0.85;0.85;;;;;;;;;;12496434;28;20303;-74
2022/09/03 07:14:35;;;;;;;1.55;0.82;;;;;;;;;;12496244;28;20048;-74
2022/09/03 07:20:37;;;;;;;1.15;1.05;;;;;;;;;;12495877;28;20037;-74
2022/09/03 07:26:43;;;;;;;0.85;0.80;;;;;;;;;;12478547;28;20049;-74
2022/09/03 07:32:45;;;;;;;1.08;0.98;;;;;;;;;;12477774;28;20514;-73
2022/09/03 07:38:47;;;;;;;1.27;0.93;;;;;;;;;;12478681;28;20029;-74
2022/09/03 07:44:48;;;;;;;3.35;1.38;;;;;;;;;;12477651;28;20045;-74
2022/09/03 07:50:50;;;;;;;1.77;1.15;;;;;;;;;;12494927;28;20033;-73
2022/09/03 07:56:52;;;;;;;;;;;;;;;;;;12477310;28;20033;-73
2022/09/03 08:02:55;;;;;;;1.80;1.00;;;;;;;;;;12494603;28;19924;-73
2022/09/03 08:08:58;;;;;;;1.13;1.00;;;;;;;;;;12494184;28;20049;-73
2022/09/03 08:15:01;;;;;;;0.85;0.85;;;;;;;;;;12494921;28;20037;-73
2022/09/03 08:21:07;;;;;;;1.13;1.00;;;;;;;;;;12477156;28;20045;-73
2022/09/03 08:27:09;;;;;;;1.02;0.80;;;;;;;;;;12494214;28;20514;-73
2022/09/03 08:33:10;;;;;;;1.17;0.88;;;;;;;;;;12476349;28;20056;-73
2022/09/03 08:39:12;;;;;;;0.80;0.80;;;;;;;;;;12476718;28;20041;-73
2022/09/03 08:45:16;;;;;;;1.30;0.85;;;;;;;;;;12483803;28;20072;-73
2022/09/03 08:51:20;;;;;;;1.85;0.90;;;;;;;;;;12503937;28;20044;-73
2022/09/03 08:57:21;;;;;;;1.42;0.73;;;;;;;;;;12502940;28;20367;-73
2022/09/03 09:03:23;;;;;;;;;;;;;;;;;;12502775;28;20045;-73
2022/09/03 09:09:27;;;;;;;0.70;0.70;;;;;;;;;;12502147;28;19940;-74
2022/09/03 09:15:35;;;;;;;1.55;0.90;;;;;;;;;;12502061;28;20048;-74
2022/09/03 09:21:44;;;;;;;0.98;0.68;;;;;;;;;;12501547;28;20199;-74
2022/09/03 09:28:06;;;;;;;0.60;0.60;;;;;;;;;;12484806;28;20364;-74
2022/09/03 09:34:08;;;;;;;0.50;0.50;;;;;;;;;;12470159;28;20049;-74
2022/09/03 09:40:10;;;;;;;0.50;0.50;;;;;;;;;;12501447;28;20025;-73
2022/09/03 09:46:13;;;;;;;0.50;0.50;;;;;;;;;;12483931;28;20419;-73
2022/09/03 09:52:16;;;;;;;0.50;0.50;;;;;;;;;;12466365;28;20036;-74
2022/09/03 09:58:22;;;;;;;0.40;0.40;;;;;;;;;;12500075;28;20506;-74
2022/09/03 10:04:28;;;;;;;0.57;0.50;;;;;;;;;;12481890;28;20415;-73
2022/09/03 10:10:33;;;;;;;0.60;0.60;;;;;;;;;;12499802;28;20041;-73
2022/09/03 10:16:39;;;;;;;0.90;0.70;;;;;;;;;;12482225;28;20057;-73
2022/09/03 10:22:45;;;;;;;1.35;0.77;;;;;;;;;;12499046;28;20040;-74
2022/09/03 10:28:49;;;;;;;0.93;0.68;;;;;;;;;;12480881;28;20040;-73
2022/09/03 10:34:58;;;;;;;1.13;0.52;;;;;;;;;;12498317;28;20033;-73
2022/09/03 10:41:18;;;;;;;1.30;0.70;;;;;;;;;;12499029;28;20041;-72
2022/09/03 10:47:27;;;;;;;1.38;0.50;;;;;;;;;;12498043;28;20060;-73
2022/09/03 10:53:38;;;;;;;0.63;0.47;;;;;;;;;;12498039;28;20037;-73
2022/09/03 11:00:09;;;;;;;0.80;0.70;;;;;;;;;;12479593;28;20055;-73
2022/09/03 11:06:14;;;;;;;1.10;0.50;;;;;;;;;;12489357;28;20049;-73
2022/09/03 11:12:21;;;;;;;1.00;0.70;;;;;;;;;;12462303;28;20053;-73
2022/09/03 11:18:28;;;;;;;1.15;0.55;;;;;;;;;;12478824;28;20295;-73
2022/09/03 11:24:32;;;;;;;0.77;0.60;;;;;;;;;;12495868;28;20053;-73
2022/09/03 11:30:39;;;;;;;2.75;0.98;;;;;;;;;;12478149;28;20033;-73
2022/09/03 11:36:42;;;;;;;0.80;0.60;;;;;;;;;;12495439;28;20044;-73
2022/09/03 11:42:44;;;;;;;0.50;0.50;;;;;;;;;;12477736;28;20045;-73
2022/09/03 11:48:47;;;;;;;0.82;0.60;;;;;;;;;;12495201;28;20040;-73
2022/09/03 11:54:48;;;;;;;0.50;0.50;;;;;;;;;;12495106;28;20041;-73
2022/09/03 12:00:52;;;;;;;0.47;0.40;;;;;;;;;;12494656;28;20037;-73
2022/09/03 12:07:04;;;;;;;0.85;0.50;;;;;;;;;;12477407;28;20041;-73
2022/09/03 12:13:17;;;;;;;0.70;0.70;;;;;;;;;;12475700;28;20053;-73
2022/09/03 12:19:28;;;;;;;0.68;0.55;;;;;;;;;;12480452;28;20042;-73
2022/09/03 12:25:30;;;;;;;0.43;0.40;;;;;;;;;;12501878;28;20037;-72
2022/09/03 12:31:34;;;;;;;0.40;0.40;;;;;;;;;;12468487;28;20391;-73
2022/09/03 12:37:36;;;;;;;0.68;0.60;;;;;;;;;;12484187;28;20376;-73
2022/09/03 12:43:38;;;;;;;0.60;0.60;;;;;;;;;;12484013;28;20037;-72
2022/09/03 12:49:41;;;;;;;0.32;0.32;;;;;;;;;;12502507;28;20522;-74
2022/09/03 12:55:48;;;;;;;0.50;0.50;;;;;;;;;;12503610;28;20037;-74
2022/09/03 13:01:55;;;;;;;0.38;0.38;;;;;;;;;;12486978;28;20394;-74
2022/09/03 13:08:02;;;;;;;0.40;0.40;;;;;;;;;;12485117;28;20042;-73
2022/09/03 13:14:08;;;;;;;0.35;0.35;;;;;;;;;;12484724;28;20037;-77
2022/09/03 13:20:19;;;;;;;0.40;0.38;;;;;;;;;;12502266;28;20407;-74
2022/09/03 13:26:21;;;;;;;0.50;0.50;;;;;;;;;;12501570;28;20517;-74
2022/09/03 13:32:53;;;;;;;0.77;0.55;;;;;;;;;;12483376;28;20036;-73
2022/09/03 13:39:05;;;;;;;1.10;0.60;;;;;;;;;;12467457;28;20062;-74
2022/09/03 13:45:25;;;;;;;0.68;0.68;;;;;;;;;;12482787;28;20057;-73
2022/09/03 13:51:32;;;;;;;0.50;0.50;;;;;;;;;;12500557;28;20037;-73
2022/09/03 13:57:47;;;;;;;0.60;0.50;;;;;;;;;;12482287;28;20034;-74
2022/09/03 14:03:57;;;;;;;0.98;0.68;;;;;;;;;;12500084;28;20128;-73
2022/09/03 14:10:05;;;;;;;0.77;0.77;;;;;;;;;;12499555;28;20056;-73
2022/09/03 14:16:27;;;;;;;0.80;0.80;;;;;;;;;;12499566;28;20029;-73
2022/09/03 14:22:39;;;;;;;0.70;0.70;;;;;;;;;;12481089;28;20510;-73
2022/09/03 14:28:48;;;;;;;0.70;0.55;;;;;;;;;;12480744;28;20029;-73
2022/09/03 14:34:53;;;;;;;0.98;0.55;;;;;;;;;;12480753;28;20040;-73
2022/09/03 14:41:15;;;;;;;1.15;0.68;;;;;;;;;;12464318;28;20037;-73
2022/09/03 14:47:29;;;;;;;0.60;0.50;;;;;;;;;;12497819;28;20056;-73
2022/09/03 14:53:42;;;;;;;0.57;0.40;;;;;;;;;;12496887;28;20503;-73
2022/09/03 14:59:47;;;;;;;0.55;0.47;;;;;;;;;;12475975;28;20036;-73
2022/09/03 15:06:08;;;;;;;0.65;0.50;;;;;;;;;;12493478;28;20049;-76
2022/09/03 15:12:21;;;;;;;0.40;0.40;;;;;;;;;;12475596;28;20049;-74
2022/09/03 15:18:22;;;;;;;1.10;0.63;;;;;;;;;;12493616;28;20037;-74
2022/09/03 15:24:43;;;;;;;1.15;0.43;;;;;;;;;;12474616;28;20403;-74
2022/09/03 15:31:05;;;;;;;0.88;0.57;;;;;;;;;;12493410;28;20383;-73
2022/09/03 15:37:13;;;;;;;0.47;0.35;;;;;;;;;;12495796;28;20418;-73
2022/09/03 15:43:23;;;;;;;0.40;0.40;;;;;;;;;;12496806;28;20046;-74
2022/09/03 15:49:43;;;;;;;0.47;0.47;;;;;;;;;;12495825;28;20046;-74
2022/09/03 15:55:46;;;;;;;0.45;0.45;;;;;;;;;;12477514;28;20029;-74
2022/09/03 16:01:52;;;;;;;0.40;0.40;;;;;;;;;;12477174;28;20033;-74
2022/09/03 16:08:08;;;;;;;0.40;0.30;;;;;;;;;;12493972;28;20045;-73
2022/09/03 16:14:15;;;;;;;0.50;0.43;;;;;;;;;;12477307;28;20049;-73
2022/09/03 16:20:20;;;;;;;0.77;0.50;;;;;;;;;;12494307;28;20025;-73
2022/09/03 16:26:26;;;;;;;0.40;0.40;;;;;;;;;;12494131;28;20041;-73
2022/09/03 16:32:37;;;;;;;0.43;0.43;;;;;;;;;;12494411;28;20483;-74
2022/09/03 16:38:58;;;;;;;0.40;0.40;;;;;;;;;;12476345;28;20048;-74
2022/09/03 16:45:18;;;;;;;0.50;0.50;;;;;;;;;;12475996;28;20503;-74
2022/09/03 16:51:21;;;;;;;0.63;0.45;;;;;;;;;;12476039;28;20034;-73
2022/09/03 16:57:25;;;;;;;0.40;0.35;;;;;;;;;;12475900;28;20483;-73
2022/09/03 17:03:27;;;;;;;0.52;0.40;;;;;;;;;;12478297;28;20060;-74
2022/09/03 17:09:35;;;;;;;0.73;0.40;;;;;;;;;;12484664;28;20041;-74
2022/09/03 17:15:48;;;;;;;0.65;0.60;;;;;;;;;;12484541;28;20033;-73
2022/09/03 17:21:49;;;;;;;0.60;0.50;;;;;;;;;;12502053;28;20056;-74
2022/09/03 17:27:56;;;;;;;0.38;0.35;;;;;;;;;;12501384;28;20053;-73
2022/09/03 17:34:05;;;;;;;0.50;0.40;;;;;;;;;;12501673;28;20506;-73
2022/09/03 17:40:25;;;;;;;0.40;0.40;;;;;;;;;;12501477;28;20049;-73
2022/09/03 17:46:39;;;;;;;0.90;0.57;;;;;;;;;;12500823;28;20049;-73
2022/09/03 17:52:45;;;;;;;0.55;0.40;;;;;;;;;;12500268;28;20395;-73
2022/09/03 17:58:53;;;;;;;0.32;0.30;;;;;;;;;;12482625;28;20044;-74
2022/09/03 18:05:01;;;;;;;0.50;0.50;;;;;;;;;;12500267;28;20483;-74
2022/09/03 18:11:06;;;;;;;0.75;0.50;;;;;;;;;;12500777;28;20053;-73
2022/09/03 18:17:10;;;;;;;0.60;0.60;;;;;;;;;;12482126;28;20041;-73
2022/09/03 20:13:19;;;;;;;1.25;1.10;;;;;;;;;;12495624;28;20058;-73
2022/09/03 20:19:29;;;;;;;1.27;0.90;;;;;;;;;;12493853;28;20042;-74
2022/09/03 20:25:34;;;;;;;1.25;1.13;;;;;;;;;;12476486;28;20045;-74
2022/09/03 20:31:50;;;;;;;1.05;1.05;;;;;;;;;;12494140;28;20372;-74
2022/09/03 20:38:15;;;;;;;1.88;0.93;;;;;;;;;;12495465;28;20037;-73
2022/09/03 20:44:32;;;;;;;1.63;1.30;;;;;;;;;;12484886;28;20079;-73
2022/09/03 20:50:55;;;;;;;1.45;1.35;;;;;;;;;;12484098;28;20038;-72
2022/09/03 20:57:00;;;;;;;2.10;1.20;;;;;;;;;;12501741;28;20041;-73
2022/09/03 21:03:09;;;;;;;1.80;1.52;;;;;;;;;;12502225;28;20044;-73
2022/09/03 21:09:29;;;;;;;2.10;1.90;;;;;;;;;;12502700;28;20092;-73
2022/09/03 21:15:46;;;;;;;2.53;1.77;;;;;;;;;;12484548;28;20040;-73
2022/09/03 21:21:54;;;;;;;1.63;1.52;;;;;;;;;;12501945;28;20033;-73
2022/09/03 21:28:09;;;;;;;1.20;1.10;;;;;;;;;;12502209;28;20049;-73
2022/09/03 21:34:12;;;;;;;1.20;1.00;;;;;;;;;;12483830;28;20034;-73
2022/09/03 21:40:15;;;;;;;1.40;1.20;;;;;;;;;;12501647;28;20037;-73
2022/09/03 21:46:20;;;;;;;1.20;1.10;;;;;;;;;;12482325;28;20422;-73
2022/09/03 21:52:42;;;;;;;1.40;1.30;;;;;;;;;;12499078;28;20056;-73
2022/09/03 21:58:47;;;;;;;1.50;1.40;;;;;;;;;;12443089;28;20038;-73
2022/09/03 22:04:49;;;;;;;1.63;1.40;;;;;;;;;;12482256;28;20038;-73
2022/09/03 22:10:51;;;;;;;1.30;1.20;;;;;;;;;;12482193;28;20057;-73
2022/09/03 22:16:53;;;;;;;1.65;1.55;;;;;;;;;;12499772;28;20403;-73
2022/09/03 22:23:04;;;;;;;1.42;1.33;;;;;;;;;;12482100;28;20042;-73
2022/09/03 22:29:14;;;;;;;1.55;1.42;;;;;;;;;;12499069;28;20033;-73
2022/09/03 22:35:25;;;;;;;1.60;1.50;;;;;;;;;;12498897;28;20036;-73
2022/09/03 22:41:35;;;;;;;1.63;1.40;;;;;;;;;;12499067;28;20042;-73
2022/09/03 22:47:37;;;;;;;1.50;1.40;;;;;;;;;;12480559;28;20060;-73
2022/09/03 22:53:55;;;;;;;1.75;1.58;;;;;;;;;;12497604;28;20041;-73
2022/09/03 23:00:06;;;;;;;1.55;1.45;;;;;;;;;;12496850;28;20046;-73
2022/09/03 23:06:12;;;;;;;1.63;1.52;;;;;;;;;;12479419;28;20041;-73
2022/09/03 23:12:18;;;;;;;1.60;1.42;;;;;;;;;;12497596;28;20518;-73
2022/09/03 23:18:25;;;;;;;1.38;1.27;;;;;;;;;;12479486;28;20041;-73
2022/09/03 23:24:28;;;;;;;1.50;1.20;;;;;;;;;;12462061;28;20046;-73
2022/09/03 23:30:30;;;;;;;1.50;1.40;;;;;;;;;;12478717;28;20033;-73
2022/09/03 23:36:38;;;;;;;2.00;1.70;;;;;;;;;;12478264;28;20049;-73
2022/09/03 23:42:48;;;;;;;1.83;1.73;;;;;;;;;;12497112;28;20029;-73
2022/09/03 23:48:50;;;;;;;1.80;1.70;;;;;;;;;;12478280;28;20046;-73
2022/09/03 23:55:03;;;;;;;1.92;1.83;;;;;;;;;;12477555;28;20048;-73
